sensor_id;sensor_type;location;lat;lon;timestamp;temperature;humidity
12977;DHT22;6553;48.412;9.514;2023-03-19T00:00:05;19.70;50.60
12977;DHT22;6553;48.412;9.514;2023-03-19T00:02:36;19.70;50.60
12977;DHT22;6553;48.412;9.514;2023-03-19T00:05:03;19.60;50.50
12977;DHT22;6553;48.412;9.514;2023-03-19T00:07:30;19.70;50.60
12977;DHT22;6553;48.412;9.514;2023-03-19T00:09:55;19.60;50.50
12977;DHT22;6553;48.412;9.514;2023-03-19T00:12:21;19.60;50.50
12977;DHT22;6553;48.412;9.514;2023-03-19T00:14:47;19.60;50.50
12977;DHT22;6553;48.412;9.514;2023-03-19T00:17:13;19.60;50.50
12977;DHT22;6553;48.412;9.514;2023-03-19T00:19:39;19.60;50.50
12977;DHT22;6553;48.412;9.514;2023-03-19T00:22:05;19.60;50.50
12977;DHT22;6553;48.412;9.514;2023-03-19T00:24:31;19.60;50.50
12977;DHT22;6553;48.412;9.514;2023-03-19T00:26:57;19.60;50.50
12977;DHT22;6553;48.412;9.514;2023-03-19T00:29:24;19.60;50.50
12977;DHT22;6553;48.412;9.514;2023-03-19T00:31:49;19.60;50.50
12977;DHT22;6553;48.412;9.514;2023-03-19T00:34:16;19.60;50.50
12977;DHT22;6553;48.412;9.514;2023-03-19T00:36:45;19.60;50.60
12977;DHT22;6553;48.412;9.514;2023-03-19T00:39:11;19.60;50.60
12977;DHT22;6553;48.412;9.514;2023-03-19T00:41:37;19.60;50.60
12977;DHT22;6553;48.412;9.514;2023-03-19T00:44:03;19.60;50.60
12977;DHT22;6553;48.412;9.514;2023-03-19T00:46:30;19.60;50.60
12977;DHT22;6553;48.412;9.514;2023-03-19T00:48:56;19.60;50.60
12977;DHT22;6553;48.412;9.514;2023-03-19T00:51:23;19.60;50.60
12977;DHT22;6553;48.412;9.514;2023-03-19T00:53:50;19.60;50.60
12977;DHT22;6553;48.412;9.514;2023-03-19T00:56:16;19.60;50.60
12977;DHT22;6553;48.412;9.514;2023-03-19T00:58:45;19.60;50.60
12977;DHT22;6553;48.412;9.514;2023-03-19T01:01:14;19.60;50.70
12977;DHT22;6553;48.412;9.514;2023-03-19T01:03:42;19.60;50.60
12977;DHT22;6553;48.412;9.514;2023-03-19T01:06:09;19.60;50.60
12977;DHT22;6553;48.412;9.514;2023-03-19T01:08:36;19.60;50.60
12977;DHT22;6553;48.412;9.514;2023-03-19T01:11:07;19.60;50.60
12977;DHT22;6553;48.412;9.514;2023-03-19T01:13:35;19.60;50.60
12977;DHT22;6553;48.412;9.514;2023-03-19T01:16:02;19.60;50.70
12977;DHT22;6553;48.412;9.514;2023-03-19T01:18:28;19.60;50.70
12977;DHT22;6553;48.412;9.514;2023-03-19T01:20:54;19.60;50.60
12977;DHT22;6553;48.412;9.514;2023-03-19T01:23:20;19.60;50.70
12977;DHT22;6553;48.412;9.514;2023-03-19T01:25:46;19.60;50.70
12977;DHT22;6553;48.412;9.514;2023-03-19T01:28:12;19.60;50.70
12977;DHT22;6553;48.412;9.514;2023-03-19T01:30:39;19.60;50.70
12977;DHT22;6553;48.412;9.514;2023-03-19T01:33:11;19.60;50.70
12977;DHT22;6553;48.412;9.514;2023-03-19T01:35:57;19.60;50.70
12977;DHT22;6553;48.412;9.514;2023-03-19T01:38:27;19.60;50.70
12977;DHT22;6553;48.412;9.514;2023-03-19T01:40:59;19.60;50.80
12977;DHT22;6553;48.412;9.514;2023-03-19T01:43:27;19.60;50.80
12977;DHT22;6553;48.412;9.514;2023-03-19T01:46:35;19.60;50.80
12977;DHT22;6553;48.412;9.514;2023-03-19T01:49:38;19.60;50.80
12977;DHT22;6553;48.412;9.514;2023-03-19T01:52:16;19.60;50.90
12977;DHT22;6553;48.412;9.514;2023-03-19T01:54:56;19.50;50.80
12977;DHT22;6553;48.412;9.514;2023-03-19T01:58:01;19.60;50.80
12977;DHT22;6553;48.412;9.514;2023-03-19T02:00:45;19.50;50.80
12977;DHT22;6553;48.412;9.514;2023-03-19T02:03:12;19.50;50.80
12977;DHT22;6553;48.412;9.514;2023-03-19T02:05:58;19.60;51.00
12977;DHT22;6553;48.412;9.514;2023-03-19T02:08:26;19.60;51.00
12977;DHT22;6553;48.412;9.514;2023-03-19T02:10:54;19.60;51.00
12977;DHT22;6553;48.412;9.514;2023-03-19T02:13:25;19.60;50.90
12977;DHT22;6553;48.412;9.514;2023-03-19T02:15:52;19.60;51.00
12977;DHT22;6553;48.412;9.514;2023-03-19T02:18:20;19.60;50.90
12977;DHT22;6553;48.412;9.514;2023-03-19T02:23:50;19.50;50.90
12977;DHT22;6553;48.412;9.514;2023-03-19T02:26:38;19.60;51.00
12977;DHT22;6553;48.412;9.514;2023-03-19T02:29:06;19.60;51.00
12977;DHT22;6553;48.412;9.514;2023-03-19T02:31:35;19.50;50.90
12977;DHT22;6553;48.412;9.514;2023-03-19T02:34:06;19.60;51.00
12977;DHT22;6553;48.412;9.514;2023-03-19T02:36:41;19.50;50.90
12977;DHT22;6553;48.412;9.514;2023-03-19T02:39:21;19.50;50.90
12977;DHT22;6553;48.412;9.514;2023-03-19T02:41:53;19.50;50.90
12977;DHT22;6553;48.412;9.514;2023-03-19T02:44:24;19.50;50.90
12977;DHT22;6553;48.412;9.514;2023-03-19T02:46:50;19.50;50.90
12977;DHT22;6553;48.412;9.514;2023-03-19T02:49:16;19.50;50.90
12977;DHT22;6553;48.412;9.514;2023-03-19T02:51:43;19.50;50.90
12977;DHT22;6553;48.412;9.514;2023-03-19T02:54:09;19.50;50.90
12977;DHT22;6553;48.412;9.514;2023-03-19T02:56:35;19.50;50.90
12977;DHT22;6553;48.412;9.514;2023-03-19T02:59:00;19.50;50.90
12977;DHT22;6553;48.412;9.514;2023-03-19T03:01:26;19.50;50.90
12977;DHT22;6553;48.412;9.514;2023-03-19T03:03:52;19.50;50.90
12977;DHT22;6553;48.412;9.514;2023-03-19T03:06:18;19.50;50.90
12977;DHT22;6553;48.412;9.514;2023-03-19T03:08:45;19.50;50.90
12977;DHT22;6553;48.412;9.514;2023-03-19T03:11:10;19.50;50.90
12977;DHT22;6553;48.412;9.514;2023-03-19T03:13:36;19.50;50.90
12977;DHT22;6553;48.412;9.514;2023-03-19T03:16:02;19.50;50.90
12977;DHT22;6553;48.412;9.514;2023-03-19T03:18:28;19.50;50.90
12977;DHT22;6553;48.412;9.514;2023-03-19T03:20:54;19.50;50.90
12977;DHT22;6553;48.412;9.514;2023-03-19T03:23:20;19.50;50.90
12977;DHT22;6553;48.412;9.514;2023-03-19T03:25:50;19.50;50.90
12977;DHT22;6553;48.412;9.514;2023-03-19T03:28:17;19.50;50.90
12977;DHT22;6553;48.412;9.514;2023-03-19T03:30:44;19.50;50.90
12977;DHT22;6553;48.412;9.514;2023-03-19T03:33:11;19.50;50.90
12977;DHT22;6553;48.412;9.514;2023-03-19T03:35:37;19.50;50.90
12977;DHT22;6553;48.412;9.514;2023-03-19T03:38:04;19.50;50.90
12977;DHT22;6553;48.412;9.514;2023-03-19T03:40:31;19.50;50.90
12977;DHT22;6553;48.412;9.514;2023-03-19T03:42:58;19.50;50.90
12977;DHT22;6553;48.412;9.514;2023-03-19T03:45:24;19.50;50.90
12977;DHT22;6553;48.412;9.514;2023-03-19T03:47:51;19.50;50.90
12977;DHT22;6553;48.412;9.514;2023-03-19T03:50:16;19.50;50.90
12977;DHT22;6553;48.412;9.514;2023-03-19T03:52:43;19.50;50.90
12977;DHT22;6553;48.412;9.514;2023-03-19T03:55:09;19.50;50.90
12977;DHT22;6553;48.412;9.514;2023-03-19T03:57:35;19.50;50.90
12977;DHT22;6553;48.412;9.514;2023-03-19T04:00:02;19.50;50.90
12977;DHT22;6553;48.412;9.514;2023-03-19T04:02:38;19.50;50.90
12977;DHT22;6553;48.412;9.514;2023-03-19T04:05:05;19.50;50.90
12977;DHT22;6553;48.412;9.514;2023-03-19T04:07:31;19.50;50.90
12977;DHT22;6553;48.412;9.514;2023-03-19T04:09:57;19.50;50.90
12977;DHT22;6553;48.412;9.514;2023-03-19T04:12:23;19.40;50.80
12977;DHT22;6553;48.412;9.514;2023-03-19T04:14:49;19.50;50.90
12977;DHT22;6553;48.412;9.514;2023-03-19T04:17:16;19.50;50.90
12977;DHT22;6553;48.412;9.514;2023-03-19T04:19:42;19.50;50.90
12977;DHT22;6553;48.412;9.514;2023-03-19T04:22:08;19.50;50.90
12977;DHT22;6553;48.412;9.514;2023-03-19T04:24:34;19.50;50.90
12977;DHT22;6553;48.412;9.514;2023-03-19T04:27:02;19.50;50.90
12977;DHT22;6553;48.412;9.514;2023-03-19T04:29:28;19.50;51.00
12977;DHT22;6553;48.412;9.514;2023-03-19T04:31:55;19.50;51.60
12977;DHT22;6553;48.412;9.514;2023-03-19T04:34:21;19.50;50.90
12977;DHT22;6553;48.412;9.514;2023-03-19T04:36:47;19.40;50.80
12977;DHT22;6553;48.412;9.514;2023-03-19T04:39:14;19.50;51.00
12977;DHT22;6553;48.412;9.514;2023-03-19T04:41:40;19.40;50.90
12977;DHT22;6553;48.412;9.514;2023-03-19T04:44:22;19.40;51.00
12977;DHT22;6553;48.412;9.514;2023-03-19T04:46:48;19.50;51.10
12977;DHT22;6553;48.412;9.514;2023-03-19T04:49:15;19.50;51.10
12977;DHT22;6553;48.412;9.514;2023-03-19T04:51:41;19.40;51.00
12977;DHT22;6553;48.412;9.514;2023-03-19T04:54:07;19.40;51.10
12977;DHT22;6553;48.412;9.514;2023-03-19T04:56:33;19.50;51.20
12977;DHT22;6553;48.412;9.514;2023-03-19T04:58:59;19.40;51.10
12977;DHT22;6553;48.412;9.514;2023-03-19T05:01:25;19.40;51.10
12977;DHT22;6553;48.412;9.514;2023-03-19T05:04:11;19.50;51.20
12977;DHT22;6553;48.412;9.514;2023-03-19T05:06:37;19.40;51.10
12977;DHT22;6553;48.412;9.514;2023-03-19T05:09:05;19.40;51.20
12977;DHT22;6553;48.412;9.514;2023-03-19T05:11:32;19.40;51.20
12977;DHT22;6553;48.412;9.514;2023-03-19T05:14:02;19.40;51.20
12977;DHT22;6553;48.412;9.514;2023-03-19T05:16:37;19.40;51.20
12977;DHT22;6553;48.412;9.514;2023-03-19T05:19:03;19.50;51.20
12977;DHT22;6553;48.412;9.514;2023-03-19T05:21:30;19.40;51.20
12977;DHT22;6553;48.412;9.514;2023-03-19T05:23:57;19.50;51.30
12977;DHT22;6553;48.412;9.514;2023-03-19T05:26:24;19.40;51.20
12977;DHT22;6553;48.412;9.514;2023-03-19T05:29:16;19.40;51.20
12977;DHT22;6553;48.412;9.514;2023-03-19T05:31:58;19.40;51.30
12977;DHT22;6553;48.412;9.514;2023-03-19T05:34:28;19.40;51.20
12977;DHT22;6553;48.412;9.514;2023-03-19T05:36:55;19.40;51.20
12977;DHT22;6553;48.412;9.514;2023-03-19T05:39:20;19.40;51.20
12977;DHT22;6553;48.412;9.514;2023-03-19T05:41:47;19.40;51.30
12977;DHT22;6553;48.412;9.514;2023-03-19T05:44:18;19.40;51.30
12977;DHT22;6553;48.412;9.514;2023-03-19T05:47:06;19.40;51.30
12977;DHT22;6553;48.412;9.514;2023-03-19T05:49:36;19.40;51.30
12977;DHT22;6553;48.412;9.514;2023-03-19T05:52:03;19.40;51.30
12977;DHT22;6553;48.412;9.514;2023-03-19T05:54:29;19.40;51.30
12977;DHT22;6553;48.412;9.514;2023-03-19T05:57:00;19.40;51.30
12977;DHT22;6553;48.412;9.514;2023-03-19T05:59:36;19.40;51.40
12977;DHT22;6553;48.412;9.514;2023-03-19T06:02:20;19.40;51.30
12977;DHT22;6553;48.412;9.514;2023-03-19T06:04:47;19.40;51.40
12977;DHT22;6553;48.412;9.514;2023-03-19T06:07:16;19.40;51.30
12977;DHT22;6553;48.412;9.514;2023-03-19T06:09:42;19.40;51.40
12977;DHT22;6553;48.412;9.514;2023-03-19T06:12:10;19.40;52.00
12977;DHT22;6553;48.412;9.514;2023-03-19T06:14:41;19.40;51.40
12977;DHT22;6553;48.412;9.514;2023-03-19T06:17:27;19.40;51.40
12977;DHT22;6553;48.412;9.514;2023-03-19T06:19:57;19.40;51.40
12977;DHT22;6553;48.412;9.514;2023-03-19T06:22:23;19.40;51.40
12977;DHT22;6553;48.412;9.514;2023-03-19T06:24:49;19.40;51.40
12977;DHT22;6553;48.412;9.514;2023-03-19T06:27:14;19.40;51.40
12977;DHT22;6553;48.412;9.514;2023-03-19T06:29:40;19.40;51.40
12977;DHT22;6553;48.412;9.514;2023-03-19T06:32:17;19.40;51.40
12977;DHT22;6553;48.412;9.514;2023-03-19T06:34:42;19.30;51.40
12977;DHT22;6553;48.412;9.514;2023-03-19T06:37:08;19.40;51.40
12977;DHT22;6553;48.412;9.514;2023-03-19T06:39:34;19.40;51.40
12977;DHT22;6553;48.412;9.514;2023-03-19T06:42:00;19.40;51.50
12977;DHT22;6553;48.412;9.514;2023-03-19T06:44:26;19.30;51.40
12977;DHT22;6553;48.412;9.514;2023-03-19T06:46:51;19.30;51.40
12977;DHT22;6553;48.412;9.514;2023-03-19T06:49:17;19.30;51.40
12977;DHT22;6553;48.412;9.514;2023-03-19T06:51:43;19.40;51.40
12977;DHT22;6553;48.412;9.514;2023-03-19T06:54:09;19.30;51.40
12977;DHT22;6553;48.412;9.514;2023-03-19T06:56:35;19.30;51.40
12977;DHT22;6553;48.412;9.514;2023-03-19T06:59:01;19.40;51.40
12977;DHT22;6553;48.412;9.514;2023-03-19T07:01:26;19.30;51.50
12977;DHT22;6553;48.412;9.514;2023-03-19T07:03:53;19.40;51.50
12977;DHT22;6553;48.412;9.514;2023-03-19T07:06:19;19.40;51.50
12977;DHT22;6553;48.412;9.514;2023-03-19T07:08:45;19.30;51.40
12977;DHT22;6553;48.412;9.514;2023-03-19T07:11:11;19.40;51.50
12977;DHT22;6553;48.412;9.514;2023-03-19T07:13:38;19.30;51.40
12977;DHT22;6553;48.412;9.514;2023-03-19T07:16:04;19.40;51.50
12977;DHT22;6553;48.412;9.514;2023-03-19T07:18:30;19.30;51.40
12977;DHT22;6553;48.412;9.514;2023-03-19T07:20:56;19.40;51.50
12977;DHT22;6553;48.412;9.514;2023-03-19T07:23:22;19.30;51.40
12977;DHT22;6553;48.412;9.514;2023-03-19T07:25:47;19.40;51.50
12977;DHT22;6553;48.412;9.514;2023-03-19T07:28:14;19.40;51.60
12977;DHT22;6553;48.412;9.514;2023-03-19T07:30:40;19.40;51.60
12977;DHT22;6553;48.412;9.514;2023-03-19T07:33:06;19.40;51.60
12977;DHT22;6553;48.412;9.514;2023-03-19T07:35:33;19.40;51.60
12977;DHT22;6553;48.412;9.514;2023-03-19T07:37:59;19.40;51.50
12977;DHT22;6553;48.412;9.514;2023-03-19T07:40:27;19.40;51.60
12977;DHT22;6553;48.412;9.514;2023-03-19T07:42:53;19.40;51.50
12977;DHT22;6553;48.412;9.514;2023-03-19T07:45:18;19.50;51.60
12977;DHT22;6553;48.412;9.514;2023-03-19T07:47:44;19.40;51.50
12977;DHT22;6553;48.412;9.514;2023-03-19T07:50:11;19.40;51.50
12977;DHT22;6553;48.412;9.514;2023-03-19T07:52:37;19.40;51.50
12977;DHT22;6553;48.412;9.514;2023-03-19T07:55:03;19.40;51.50
12977;DHT22;6553;48.412;9.514;2023-03-19T07:57:30;19.40;51.50
12977;DHT22;6553;48.412;9.514;2023-03-19T07:59:57;19.40;51.50
12977;DHT22;6553;48.412;9.514;2023-03-19T08:02:23;19.40;51.50
12977;DHT22;6553;48.412;9.514;2023-03-19T08:04:49;19.50;51.60
12977;DHT22;6553;48.412;9.514;2023-03-19T08:07:15;19.40;51.50
12977;DHT22;6553;48.412;9.514;2023-03-19T08:09:41;19.40;51.50
12977;DHT22;6553;48.412;9.514;2023-03-19T08:12:07;19.40;51.50
12977;DHT22;6553;48.412;9.514;2023-03-19T08:14:33;19.40;51.60
12977;DHT22;6553;48.412;9.514;2023-03-19T08:16:59;19.40;51.60
12977;DHT22;6553;48.412;9.514;2023-03-19T08:19:25;19.40;51.60
12977;DHT22;6553;48.412;9.514;2023-03-19T08:21:51;19.50;51.60
12977;DHT22;6553;48.412;9.514;2023-03-19T08:24:17;19.50;51.60
12977;DHT22;6553;48.412;9.514;2023-03-19T08:26:44;19.50;51.60
12977;DHT22;6553;48.412;9.514;2023-03-19T08:29:10;19.50;51.60
12977;DHT22;6553;48.412;9.514;2023-03-19T08:31:36;19.50;51.60
12977;DHT22;6553;48.412;9.514;2023-03-19T08:34:02;19.50;51.60
12977;DHT22;6553;48.412;9.514;2023-03-19T08:36:29;19.50;51.60
12977;DHT22;6553;48.412;9.514;2023-03-19T08:38:56;19.50;51.60
12977;DHT22;6553;48.412;9.514;2023-03-19T08:41:23;19.50;51.60
12977;DHT22;6553;48.412;9.514;2023-03-19T08:43:50;19.50;51.60
12977;DHT22;6553;48.412;9.514;2023-03-19T08:46:16;19.50;51.60
12977;DHT22;6553;48.412;9.514;2023-03-19T08:48:42;19.50;51.50
12977;DHT22;6553;48.412;9.514;2023-03-19T08:51:09;19.50;51.50
12977;DHT22;6553;48.412;9.514;2023-03-19T08:53:35;19.50;51.70
12977;DHT22;6553;48.412;9.514;2023-03-19T08:56:04;19.50;51.60
12977;DHT22;6553;48.412;9.514;2023-03-19T08:58:32;19.50;51.60
12977;DHT22;6553;48.412;9.514;2023-03-19T09:01:03;19.50;51.60
12977;DHT22;6553;48.412;9.514;2023-03-19T09:03:35;19.50;51.60
12977;DHT22;6553;48.412;9.514;2023-03-19T09:06:05;19.50;51.60
12977;DHT22;6553;48.412;9.514;2023-03-19T09:08:33;19.50;51.60
12977;DHT22;6553;48.412;9.514;2023-03-19T09:11:00;19.50;51.60
12977;DHT22;6553;48.412;9.514;2023-03-19T09:13:26;19.50;51.60
12977;DHT22;6553;48.412;9.514;2023-03-19T09:15:52;19.60;51.70
12977;DHT22;6553;48.412;9.514;2023-03-19T09:18:18;19.60;51.70
12977;DHT22;6553;48.412;9.514;2023-03-19T09:20:53;19.60;51.70
12977;DHT22;6553;48.412;9.514;2023-03-19T09:23:20;19.60;51.60
12977;DHT22;6553;48.412;9.514;2023-03-19T09:25:46;19.60;51.60
12977;DHT22;6553;48.412;9.514;2023-03-19T09:28:12;19.60;51.60
12977;DHT22;6553;48.412;9.514;2023-03-19T09:30:38;19.60;51.60
12977;DHT22;6553;48.412;9.514;2023-03-19T09:33:04;19.60;51.60
12977;DHT22;6553;48.412;9.514;2023-03-19T09:35:31;19.60;51.60
12977;DHT22;6553;48.412;9.514;2023-03-19T09:37:59;19.60;51.60
12977;DHT22;6553;48.412;9.514;2023-03-19T09:40:35;19.60;51.60
12977;DHT22;6553;48.412;9.514;2023-03-19T09:43:34;19.60;51.60
12977;DHT22;6553;48.412;9.514;2023-03-19T09:46:18;19.60;51.70
12977;DHT22;6553;48.412;9.514;2023-03-19T09:48:57;19.60;51.60
12977;DHT22;6553;48.412;9.514;2023-03-19T09:51:45;19.60;51.70
12977;DHT22;6553;48.412;9.514;2023-03-19T09:54:26;19.60;51.70
12977;DHT22;6553;48.412;9.514;2023-03-19T09:56:55;19.60;51.70
12977;DHT22;6553;48.412;9.514;2023-03-19T09:59:22;19.60;51.60
12977;DHT22;6553;48.412;9.514;2023-03-19T10:01:57;19.60;51.60
12977;DHT22;6553;48.412;9.514;2023-03-19T10:04:56;19.60;51.60
12977;DHT22;6553;48.412;9.514;2023-03-19T10:16:13;19.60;51.60
12977;DHT22;6553;48.412;9.514;2023-03-19T10:18:48;19.70;51.70
12977;DHT22;6553;48.412;9.514;2023-03-19T10:21:24;19.70;52.20
12977;DHT22;6553;48.412;9.514;2023-03-19T10:24:05;19.70;52.20
12977;DHT22;6553;48.412;9.514;2023-03-19T10:26:37;19.70;52.20
12977;DHT22;6553;48.412;9.514;2023-03-19T10:29:09;19.70;52.40
12977;DHT22;6553;48.412;9.514;2023-03-19T10:34:40;19.70;52.50
12977;DHT22;6553;48.412;9.514;2023-03-19T10:39:48;19.70;52.40
12977;DHT22;6553;48.412;9.514;2023-03-19T10:42:41;19.70;52.50
12977;DHT22;6553;48.412;9.514;2023-03-19T10:45:36;19.70;53.20
12977;DHT22;6553;48.412;9.514;2023-03-19T10:48:03;19.80;54.90
12977;DHT22;6553;48.412;9.514;2023-03-19T10:50:57;19.80;55.80
12977;DHT22;6553;48.412;9.514;2023-03-19T10:53:33;19.80;56.20
12977;DHT22;6553;48.412;9.514;2023-03-19T10:56:06;19.90;56.40
12977;DHT22;6553;48.412;9.514;2023-03-19T11:01:44;19.90;56.60
12977;DHT22;6553;48.412;9.514;2023-03-19T11:04:21;19.90;56.60
12977;DHT22;6553;48.412;9.514;2023-03-19T11:06:52;19.90;56.60
12977;DHT22;6553;48.412;9.514;2023-03-19T11:09:39;19.90;56.70
12977;DHT22;6553;48.412;9.514;2023-03-19T11:12:20;20.00;56.70
12977;DHT22;6553;48.412;9.514;2023-03-19T11:14:55;19.90;56.80
12977;DHT22;6553;48.412;9.514;2023-03-19T11:22:58;20.00;56.70
12977;DHT22;6553;48.412;9.514;2023-03-19T11:28:11;20.00;56.80
12977;DHT22;6553;48.412;9.514;2023-03-19T11:36:27;20.00;56.80
12977;DHT22;6553;48.412;9.514;2023-03-19T11:39:14;20.00;56.80
12977;DHT22;6553;48.412;9.514;2023-03-19T11:47:42;20.00;56.80
12977;DHT22;6553;48.412;9.514;2023-03-19T11:55:55;20.10;56.70
12977;DHT22;6553;48.412;9.514;2023-03-19T12:11:42;20.00;56.60
12977;DHT22;6553;48.412;9.514;2023-03-19T12:20:31;20.10;56.80
12977;DHT22;6553;48.412;9.514;2023-03-19T12:31:35;20.10;56.70
12977;DHT22;6553;48.412;9.514;2023-03-19T12:37:22;20.10;56.50
12977;DHT22;6553;48.412;9.514;2023-03-19T12:42:57;20.10;56.50
12977;DHT22;6553;48.412;9.514;2023-03-19T12:45:37;20.10;56.60
12977;DHT22;6553;48.412;9.514;2023-03-19T12:48:25;20.00;56.60
12977;DHT22;6553;48.412;9.514;2023-03-19T12:50:58;20.00;56.50
12977;DHT22;6553;48.412;9.514;2023-03-19T12:57:07;20.00;56.50
12977;DHT22;6553;48.412;9.514;2023-03-19T13:02:56;20.00;56.40
12977;DHT22;6553;48.412;9.514;2023-03-19T13:05:31;20.00;56.40
12977;DHT22;6553;48.412;9.514;2023-03-19T13:08:22;20.00;56.40
12977;DHT22;6553;48.412;9.514;2023-03-19T13:10:54;20.00;56.40
12977;DHT22;6553;48.412;9.514;2023-03-19T13:21:47;20.00;56.20
12977;DHT22;6553;48.412;9.514;2023-03-19T13:24:36;20.00;56.40
12977;DHT22;6553;48.412;9.514;2023-03-19T13:27:08;20.00;56.20
12977;DHT22;6553;48.412;9.514;2023-03-19T13:29:54;20.00;56.30
12977;DHT22;6553;48.412;9.514;2023-03-19T13:32:24;20.00;56.20
12977;DHT22;6553;48.412;9.514;2023-03-19T13:38:13;20.00;56.30
12977;DHT22;6553;48.412;9.514;2023-03-19T13:40:45;20.00;56.40
12977;DHT22;6553;48.412;9.514;2023-03-19T14:01:58;20.00;56.40
12977;DHT22;6553;48.412;9.514;2023-03-19T14:04:30;20.00;56.30
12977;DHT22;6553;48.412;9.514;2023-03-19T14:07:11;20.00;56.30
12977;DHT22;6553;48.412;9.514;2023-03-19T14:09:45;20.00;56.30
12977;DHT22;6553;48.412;9.514;2023-03-19T14:14:46;20.00;56.40
12977;DHT22;6553;48.412;9.514;2023-03-19T14:28:47;19.90;56.20
12977;DHT22;6553;48.412;9.514;2023-03-19T14:31:25;19.90;56.10
12977;DHT22;6553;48.412;9.514;2023-03-19T14:37:21;19.90;56.30
12977;DHT22;6553;48.412;9.514;2023-03-19T14:40:19;19.90;56.40
12977;DHT22;6553;48.412;9.514;2023-03-19T14:51:56;19.90;56.30
12977;DHT22;6553;48.412;9.514;2023-03-19T14:54:50;19.90;56.40
12977;DHT22;6553;48.412;9.514;2023-03-19T14:57:31;19.90;56.40
12977;DHT22;6553;48.412;9.514;2023-03-19T14:59:59;19.90;56.50
12977;DHT22;6553;48.412;9.514;2023-03-19T15:05:30;19.90;56.70
12977;DHT22;6553;48.412;9.514;2023-03-19T15:08:04;19.90;56.60
12977;DHT22;6553;48.412;9.514;2023-03-19T15:10:45;19.90;56.60
12977;DHT22;6553;48.412;9.514;2023-03-19T15:13:38;19.90;56.70
12977;DHT22;6553;48.412;9.514;2023-03-19T15:19:08;19.90;56.80
12977;DHT22;6553;48.412;9.514;2023-03-19T15:21:36;19.90;57.40
12977;DHT22;6553;48.412;9.514;2023-03-19T15:24:04;19.90;56.80
12977;DHT22;6553;48.412;9.514;2023-03-19T15:26:34;19.90;56.90
12977;DHT22;6553;48.412;9.514;2023-03-19T15:29:02;19.90;56.90
12977;DHT22;6553;48.412;9.514;2023-03-19T15:31:45;19.90;57.00
12977;DHT22;6553;48.412;9.514;2023-03-19T15:34:17;19.90;57.20
12977;DHT22;6553;48.412;9.514;2023-03-19T15:36:51;19.90;57.30
12977;DHT22;6553;48.412;9.514;2023-03-19T15:39:39;19.90;57.30
12977;DHT22;6553;48.412;9.514;2023-03-19T15:42:13;19.90;57.40
12977;DHT22;6553;48.412;9.514;2023-03-19T15:45:03;19.90;57.40
12977;DHT22;6553;48.412;9.514;2023-03-19T15:47:35;19.90;57.40
12977;DHT22;6553;48.412;9.514;2023-03-19T15:50:13;19.90;57.40
12977;DHT22;6553;48.412;9.514;2023-03-19T15:52:45;19.80;57.50
12977;DHT22;6553;48.412;9.514;2023-03-19T15:55:16;19.90;57.70
12977;DHT22;6553;48.412;9.514;2023-03-19T15:57:43;19.90;57.70
12977;DHT22;6553;48.412;9.514;2023-03-19T16:00:11;19.90;57.70
12977;DHT22;6553;48.412;9.514;2023-03-19T16:02:40;19.90;57.80
12977;DHT22;6553;48.412;9.514;2023-03-19T16:05:28;19.80;57.70
12977;DHT22;6553;48.412;9.514;2023-03-19T16:08:13;19.90;57.80
12977;DHT22;6553;48.412;9.514;2023-03-19T16:10:41;19.90;58.00
12977;DHT22;6553;48.412;9.514;2023-03-19T16:13:37;19.90;57.90
12977;DHT22;6553;48.412;9.514;2023-03-19T16:16:06;19.80;57.90
12977;DHT22;6553;48.412;9.514;2023-03-19T16:18:46;19.80;57.90
12977;DHT22;6553;48.412;9.514;2023-03-19T16:21:38;19.80;58.00
12977;DHT22;6553;48.412;9.514;2023-03-19T16:24:19;19.80;58.10
12977;DHT22;6553;48.412;9.514;2023-03-19T16:26:56;19.80;58.10
12977;DHT22;6553;48.412;9.514;2023-03-19T16:29:43;19.80;58.10
12977;DHT22;6553;48.412;9.514;2023-03-19T16:32:35;19.80;58.10
12977;DHT22;6553;48.412;9.514;2023-03-19T16:35:20;19.80;58.20
12977;DHT22;6553;48.412;9.514;2023-03-19T16:37:47;19.80;58.30
12977;DHT22;6553;48.412;9.514;2023-03-19T16:43:32;19.80;58.50
12977;DHT22;6553;48.412;9.514;2023-03-19T16:46:16;19.80;58.60
12977;DHT22;6553;48.412;9.514;2023-03-19T16:48:42;19.80;58.70
12977;DHT22;6553;48.412;9.514;2023-03-19T16:51:16;19.80;58.90
12977;DHT22;6553;48.412;9.514;2023-03-19T16:53:46;19.80;58.90
12977;DHT22;6553;48.412;9.514;2023-03-19T16:56:14;19.80;59.00
12977;DHT22;6553;48.412;9.514;2023-03-19T16:58:42;19.80;59.00
12977;DHT22;6553;48.412;9.514;2023-03-19T17:01:18;19.80;59.20
12977;DHT22;6553;48.412;9.514;2023-03-19T17:03:46;19.80;59.30
12977;DHT22;6553;48.412;9.514;2023-03-19T17:06:14;19.80;59.30
12977;DHT22;6553;48.412;9.514;2023-03-19T17:08:42;19.80;59.30
12977;DHT22;6553;48.412;9.514;2023-03-19T17:11:27;19.80;59.50
12977;DHT22;6553;48.412;9.514;2023-03-19T17:13:57;19.80;59.50
12977;DHT22;6553;48.412;9.514;2023-03-19T17:16:24;19.80;59.40
12977;DHT22;6553;48.412;9.514;2023-03-19T17:18:51;19.80;59.40
12977;DHT22;6553;48.412;9.514;2023-03-19T17:21:22;19.80;59.40
12977;DHT22;6553;48.412;9.514;2023-03-19T17:23:51;19.80;59.40
12977;DHT22;6553;48.412;9.514;2023-03-19T17:26:26;19.80;59.30
12977;DHT22;6553;48.412;9.514;2023-03-19T17:28:54;19.80;59.30
12977;DHT22;6553;48.412;9.514;2023-03-19T17:31:31;19.80;59.30
12977;DHT22;6553;48.412;9.514;2023-03-19T17:34:11;19.80;59.40
12977;DHT22;6553;48.412;9.514;2023-03-19T17:36:38;19.80;59.30
12977;DHT22;6553;48.412;9.514;2023-03-19T17:39:05;19.80;59.30
12977;DHT22;6553;48.412;9.514;2023-03-19T17:41:32;19.80;59.30
12977;DHT22;6553;48.412;9.514;2023-03-19T17:43:59;19.80;59.20
12977;DHT22;6553;48.412;9.514;2023-03-19T17:46:27;19.80;59.20
12977;DHT22;6553;48.412;9.514;2023-03-19T17:48:53;19.80;59.10
12977;DHT22;6553;48.412;9.514;2023-03-19T17:51:22;19.70;59.10
12977;DHT22;6553;48.412;9.514;2023-03-19T17:53:50;19.70;59.00
12977;DHT22;6553;48.412;9.514;2023-03-19T17:56:20;19.70;59.10
12977;DHT22;6553;48.412;9.514;2023-03-19T17:58:50;19.70;59.00
12977;DHT22;6553;48.412;9.514;2023-03-19T18:01:26;19.80;59.00
12977;DHT22;6553;48.412;9.514;2023-03-19T18:03:54;19.70;59.00
12977;DHT22;6553;48.412;9.514;2023-03-19T18:06:24;19.70;59.00
12977;DHT22;6553;48.412;9.514;2023-03-19T18:08:53;19.80;59.10
12977;DHT22;6553;48.412;9.514;2023-03-19T18:11:19;19.70;59.00
12977;DHT22;6553;48.412;9.514;2023-03-19T18:13:44;19.70;59.00
12977;DHT22;6553;48.412;9.514;2023-03-19T18:16:27;19.70;59.00
12977;DHT22;6553;48.412;9.514;2023-03-19T18:19:00;19.70;59.10
12977;DHT22;6553;48.412;9.514;2023-03-19T18:21:29;19.70;59.10
12977;DHT22;6553;48.412;9.514;2023-03-19T18:23:55;19.70;59.20
12977;DHT22;6553;48.412;9.514;2023-03-19T18:26:23;19.80;59.20
12977;DHT22;6553;48.412;9.514;2023-03-19T18:28:49;19.80;59.20
12977;DHT22;6553;48.412;9.514;2023-03-19T18:31:17;19.70;59.20
12977;DHT22;6553;48.412;9.514;2023-03-19T18:33:49;19.70;59.20
12977;DHT22;6553;48.412;9.514;2023-03-19T18:36:23;19.70;59.30
12977;DHT22;6553;48.412;9.514;2023-03-19T18:38:52;19.70;59.20
12977;DHT22;6553;48.412;9.514;2023-03-19T18:41:24;19.70;59.30